sensor_id;sensor_type;location;lat;lon;timestamp;P1;durP1;ratioP1;P2;durP2;ratioP2
529;SDS011;251;48.704;9.210;2023-06-26T00:01:06;3.83;;;2.50;;
529;SDS011;251;48.704;9.210;2023-06-26T00:03:33;3.40;;;2.80;;
529;SDS011;251;48.704;9.210;2023-06-26T00:06:00;5.03;;;3.23;;
529;SDS011;251;48.704;9.210;2023-06-26T00:08:26;4.03;;;3.63;;
529;SDS011;251;48.704;9.210;2023-06-26T00:10:53;7.83;;;3.83;;
529;SDS011;251;48.704;9.210;2023-06-26T00:13:21;5.17;;;2.90;;
529;SDS011;251;48.704;9.210;2023-06-26T00:15:50;4.70;;;3.20;;
529;SDS011;251;48.704;9.210;2023-06-26T00:18:17;3.93;;;2.60;;
529;SDS011;251;48.704;9.210;2023-06-26T00:20:44;5.23;;;3.20;;
529;SDS011;251;48.704;9.210;2023-06-26T00:23:11;4.30;;;2.53;;
529;SDS011;251;48.704;9.210;2023-06-26T00:25:38;5.13;;;3.37;;
529;SDS011;251;48.704;9.210;2023-06-26T00:28:05;4.20;;;2.90;;
529;SDS011;251;48.704;9.210;2023-06-26T00:30:31;3.00;;;2.23;;
529;SDS011;251;48.704;9.210;2023-06-26T00:33:00;5.10;;;3.20;;
529;SDS011;251;48.704;9.210;2023-06-26T00:35:27;5.70;;;3.43;;
529;SDS011;251;48.704;9.210;2023-06-26T00:37:54;5.30;;;2.83;;
529;SDS011;251;48.704;9.210;2023-06-26T00:40:20;3.43;;;3.00;;
529;SDS011;251;48.704;9.210;2023-06-26T00:42:47;3.37;;;2.47;;
529;SDS011;251;48.704;9.210;2023-06-26T00:45:14;3.27;;;2.10;;
529;SDS011;251;48.704;9.210;2023-06-26T00:47:41;5.03;;;2.90;;
529;SDS011;251;48.704;9.210;2023-06-26T00:50:09;4.20;;;3.07;;
529;SDS011;251;48.704;9.210;2023-06-26T00:52:37;5.00;;;2.93;;
529;SDS011;251;48.704;9.210;2023-06-26T00:55:05;5.37;;;3.27;;
529;SDS011;251;48.704;9.210;2023-06-26T00:57:32;5.70;;;3.13;;
529;SDS011;251;48.704;9.210;2023-06-26T00:59:59;4.17;;;2.87;;
529;SDS011;251;48.704;9.210;2023-06-26T01:02:29;5.13;;;3.17;;
529;SDS011;251;48.704;9.210;2023-06-26T01:04:58;5.23;;;2.77;;
529;SDS011;251;48.704;9.210;2023-06-26T01:07:28;3.83;;;2.77;;
529;SDS011;251;48.704;9.210;2023-06-26T01:09:57;4.47;;;3.30;;
529;SDS011;251;48.704;9.210;2023-06-26T01:12:24;3.30;;;2.60;;
529;SDS011;251;48.704;9.210;2023-06-26T01:14:52;4.37;;;2.90;;
529;SDS011;251;48.704;9.210;2023-06-26T01:17:19;4.23;;;3.10;;
529;SDS011;251;48.704;9.210;2023-06-26T01:19:46;5.40;;;3.17;;
529;SDS011;251;48.704;9.210;2023-06-26T01:22:16;4.47;;;3.27;;
529;SDS011;251;48.704;9.210;2023-06-26T01:24:53;5.43;;;3.40;;
529;SDS011;251;48.704;9.210;2023-06-26T01:27:31;6.80;;;4.33;;
529;SDS011;251;48.704;9.210;2023-06-26T01:30:00;6.13;;;3.93;;
529;SDS011;251;48.704;9.210;2023-06-26T01:32:29;6.53;;;3.40;;
529;SDS011;251;48.704;9.210;2023-06-26T01:34:57;4.37;;;3.50;;
529;SDS011;251;48.704;9.210;2023-06-26T01:37:28;5.60;;;3.50;;
529;SDS011;251;48.704;9.210;2023-06-26T01:39:55;3.40;;;2.53;;
529;SDS011;251;48.704;9.210;2023-06-26T01:42:22;3.70;;;3.03;;
529;SDS011;251;48.704;9.210;2023-06-26T01:44:50;4.23;;;2.43;;
529;SDS011;251;48.704;9.210;2023-06-26T01:47:19;3.83;;;3.10;;
529;SDS011;251;48.704;9.210;2023-06-26T01:49:50;6.90;;;3.40;;
529;SDS011;251;48.704;9.210;2023-06-26T01:52:21;4.73;;;4.03;;
529;SDS011;251;48.704;9.210;2023-06-26T01:54:56;4.30;;;3.47;;
529;SDS011;251;48.704;9.210;2023-06-26T01:57:28;4.83;;;2.83;;
529;SDS011;251;48.704;9.210;2023-06-26T01:59:59;3.70;;;2.50;;
529;SDS011;251;48.704;9.210;2023-06-26T02:02:39;5.80;;;3.20;;
529;SDS011;251;48.704;9.210;2023-06-26T02:05:07;3.03;;;2.53;;
529;SDS011;251;48.704;9.210;2023-06-26T02:07:34;4.60;;;2.90;;
529;SDS011;251;48.704;9.210;2023-06-26T02:10:02;3.57;;;3.10;;
529;SDS011;251;48.704;9.210;2023-06-26T02:12:29;4.10;;;3.10;;
529;SDS011;251;48.704;9.210;2023-06-26T02:14:55;4.83;;;2.97;;
529;SDS011;251;48.704;9.210;2023-06-26T02:17:25;5.27;;;4.43;;
529;SDS011;251;48.704;9.210;2023-06-26T02:19:54;5.67;;;3.77;;
529;SDS011;251;48.704;9.210;2023-06-26T02:22:20;4.47;;;3.57;;
529;SDS011;251;48.704;9.210;2023-06-26T02:24:47;4.33;;;3.07;;
529;SDS011;251;48.704;9.210;2023-06-26T02:27:15;5.10;;;2.90;;
529;SDS011;251;48.704;9.210;2023-06-26T02:29:41;5.43;;;3.43;;
529;SDS011;251;48.704;9.210;2023-06-26T02:32:08;3.40;;;2.80;;
529;SDS011;251;48.704;9.210;2023-06-26T02:34:37;5.00;;;3.20;;
529;SDS011;251;48.704;9.210;2023-06-26T02:37:04;5.10;;;3.33;;
529;SDS011;251;48.704;9.210;2023-06-26T02:39:32;4.87;;;3.20;;
529;SDS011;251;48.704;9.210;2023-06-26T02:41:59;4.83;;;2.70;;
529;SDS011;251;48.704;9.210;2023-06-26T02:44:26;5.87;;;3.20;;
529;SDS011;251;48.704;9.210;2023-06-26T02:46:53;8.20;;;3.73;;
529;SDS011;251;48.704;9.210;2023-06-26T02:49:20;4.90;;;3.40;;
529;SDS011;251;48.704;9.210;2023-06-26T02:51:48;4.40;;;3.20;;
529;SDS011;251;48.704;9.210;2023-06-26T02:54:22;4.47;;;3.43;;
529;SDS011;251;48.704;9.210;2023-06-26T02:56:52;4.53;;;3.30;;
529;SDS011;251;48.704;9.210;2023-06-26T02:59:24;5.10;;;3.30;;
529;SDS011;251;48.704;9.210;2023-06-26T03:01:52;4.50;;;2.97;;
529;SDS011;251;48.704;9.210;2023-06-26T03:04:22;4.53;;;3.83;;
529;SDS011;251;48.704;9.210;2023-06-26T03:06:50;4.03;;;3.27;;
529;SDS011;251;48.704;9.210;2023-06-26T03:09:17;3.10;;;2.57;;
529;SDS011;251;48.704;9.210;2023-06-26T03:11:44;6.10;;;3.17;;
529;SDS011;251;48.704;9.210;2023-06-26T03:14:11;4.87;;;3.40;;
529;SDS011;251;48.704;9.210;2023-06-26T03:16:37;3.20;;;2.77;;
529;SDS011;251;48.704;9.210;2023-06-26T03:19:04;4.10;;;3.07;;
529;SDS011;251;48.704;9.210;2023-06-26T03:21:43;5.93;;;3.80;;
529;SDS011;251;48.704;9.210;2023-06-26T03:24:11;3.60;;;2.90;;
529;SDS011;251;48.704;9.210;2023-06-26T03:26:38;5.60;;;3.00;;
529;SDS011;251;48.704;9.210;2023-06-26T03:29:05;4.13;;;3.00;;
529;SDS011;251;48.704;9.210;2023-06-26T03:31:32;4.70;;;3.10;;
529;SDS011;251;48.704;9.210;2023-06-26T03:33:59;2.57;;;2.03;;
529;SDS011;251;48.704;9.210;2023-06-26T03:36:26;3.57;;;2.80;;
529;SDS011;251;48.704;9.210;2023-06-26T03:38:53;3.83;;;3.10;;
529;SDS011;251;48.704;9.210;2023-06-26T03:41:24;5.80;;;3.77;;
529;SDS011;251;48.704;9.210;2023-06-26T03:43:51;5.57;;;3.47;;
529;SDS011;251;48.704;9.210;2023-06-26T03:46:21;4.70;;;2.77;;
529;SDS011;251;48.704;9.210;2023-06-26T03:48:48;6.90;;;3.10;;
529;SDS011;251;48.704;9.210;2023-06-26T03:51:15;7.17;;;3.77;;
529;SDS011;251;48.704;9.210;2023-06-26T03:53:42;4.40;;;2.73;;
529;SDS011;251;48.704;9.210;2023-06-26T03:56:09;5.50;;;3.60;;
529;SDS011;251;48.704;9.210;2023-06-26T03:58:38;3.90;;;3.20;;
529;SDS011;251;48.704;9.210;2023-06-26T04:01:04;6.37;;;3.03;;
529;SDS011;251;48.704;9.210;2023-06-26T04:03:31;5.87;;;3.23;;
529;SDS011;251;48.704;9.210;2023-06-26T04:05:59;4.67;;;3.03;;
529;SDS011;251;48.704;9.210;2023-06-26T04:08:26;3.90;;;2.90;;
529;SDS011;251;48.704;9.210;2023-06-26T04:10:54;6.20;;;3.40;;
529;SDS011;251;48.704;9.210;2023-06-26T04:13:22;5.30;;;3.77;;
529;SDS011;251;48.704;9.210;2023-06-26T04:15:50;5.80;;;3.87;;
529;SDS011;251;48.704;9.210;2023-06-26T04:18:17;6.00;;;4.20;;
529;SDS011;251;48.704;9.210;2023-06-26T04:23:31;3.73;;;2.90;;
529;SDS011;251;48.704;9.210;2023-06-26T04:25:58;4.07;;;3.20;;
529;SDS011;251;48.704;9.210;2023-06-26T04:28:25;3.40;;;2.60;;
529;SDS011;251;48.704;9.210;2023-06-26T04:30:53;4.60;;;3.53;;
529;SDS011;251;48.704;9.210;2023-06-26T04:33:20;6.33;;;3.57;;
529;SDS011;251;48.704;9.210;2023-06-26T04:35:47;4.03;;;3.43;;
529;SDS011;251;48.704;9.210;2023-06-26T04:38:14;5.00;;;3.70;;
529;SDS011;251;48.704;9.210;2023-06-26T04:40:41;3.33;;;2.40;;
529;SDS011;251;48.704;9.210;2023-06-26T04:43:08;4.40;;;3.20;;
529;SDS011;251;48.704;9.210;2023-06-26T04:45:35;5.50;;;3.07;;
529;SDS011;251;48.704;9.210;2023-06-26T04:48:03;3.63;;;2.60;;
529;SDS011;251;48.704;9.210;2023-06-26T04:50:32;5.07;;;3.57;;
529;SDS011;251;48.704;9.210;2023-06-26T04:53:00;3.50;;;2.73;;
529;SDS011;251;48.704;9.210;2023-06-26T04:55:27;4.73;;;3.00;;
529;SDS011;251;48.704;9.210;2023-06-26T04:57:54;3.53;;;2.67;;
529;SDS011;251;48.704;9.210;2023-06-26T05:00:21;3.83;;;2.50;;
529;SDS011;251;48.704;9.210;2023-06-26T05:02:50;3.83;;;3.47;;
529;SDS011;251;48.704;9.210;2023-06-26T05:05:27;3.73;;;2.97;;
529;SDS011;251;48.704;9.210;2023-06-26T05:07:54;5.77;;;3.60;;
529;SDS011;251;48.704;9.210;2023-06-26T05:10:21;6.40;;;3.97;;
529;SDS011;251;48.704;9.210;2023-06-26T05:12:49;5.83;;;3.53;;
529;SDS011;251;48.704;9.210;2023-06-26T05:15:16;6.80;;;3.10;;
529;SDS011;251;48.704;9.210;2023-06-26T05:17:42;3.37;;;2.67;;
529;SDS011;251;48.704;9.210;2023-06-26T05:20:10;6.43;;;3.30;;
529;SDS011;251;48.704;9.210;2023-06-26T05:22:39;4.07;;;2.73;;
529;SDS011;251;48.704;9.210;2023-06-26T05:25:07;4.33;;;3.50;;
529;SDS011;251;48.704;9.210;2023-06-26T05:27:36;5.03;;;3.43;;
529;SDS011;251;48.704;9.210;2023-06-26T05:30:03;4.60;;;2.97;;
529;SDS011;251;48.704;9.210;2023-06-26T05:32:31;4.90;;;3.37;;
529;SDS011;251;48.704;9.210;2023-06-26T05:35:00;6.10;;;5.03;;
529;SDS011;251;48.704;9.210;2023-06-26T05:37:29;4.80;;;3.53;;
529;SDS011;251;48.704;9.210;2023-06-26T05:39:58;5.33;;;3.70;;
529;SDS011;251;48.704;9.210;2023-06-26T05:42:26;4.73;;;3.30;;
529;SDS011;251;48.704;9.210;2023-06-26T05:44:53;5.10;;;3.60;;
529;SDS011;251;48.704;9.210;2023-06-26T05:47:20;5.20;;;3.00;;
529;SDS011;251;48.704;9.210;2023-06-26T05:49:47;5.57;;;4.43;;
529;SDS011;251;48.704;9.210;2023-06-26T05:52:14;5.40;;;3.90;;
529;SDS011;251;48.704;9.210;2023-06-26T05:54:41;6.83;;;2.90;;
529;SDS011;251;48.704;9.210;2023-06-26T05:57:10;3.83;;;2.90;;
529;SDS011;251;48.704;9.210;2023-06-26T05:59:39;5.63;;;2.80;;
529;SDS011;251;48.704;9.210;2023-06-26T06:02:09;4.77;;;3.40;;
529;SDS011;251;48.704;9.210;2023-06-26T06:04:35;6.80;;;3.07;;
529;SDS011;251;48.704;9.210;2023-06-26T06:07:03;4.63;;;3.80;;
529;SDS011;251;48.704;9.210;2023-06-26T06:09:30;4.70;;;3.10;;
529;SDS011;251;48.704;9.210;2023-06-26T06:11:56;5.20;;;3.40;;
529;SDS011;251;48.704;9.210;2023-06-26T06:14:25;5.40;;;4.00;;
529;SDS011;251;48.704;9.210;2023-06-26T06:16:52;4.10;;;2.80;;
529;SDS011;251;48.704;9.210;2023-06-26T06:19:19;3.13;;;2.30;;
529;SDS011;251;48.704;9.210;2023-06-26T06:21:46;2.93;;;2.27;;
529;SDS011;251;48.704;9.210;2023-06-26T06:24:12;4.00;;;3.00;;
529;SDS011;251;48.704;9.210;2023-06-26T06:26:39;3.00;;;2.60;;
529;SDS011;251;48.704;9.210;2023-06-26T06:29:06;2.93;;;2.20;;
529;SDS011;251;48.704;9.210;2023-06-26T06:31:34;3.83;;;2.27;;
529;SDS011;251;48.704;9.210;2023-06-26T06:34:01;3.27;;;2.57;;
529;SDS011;251;48.704;9.210;2023-06-26T06:36:28;3.50;;;2.27;;
529;SDS011;251;48.704;9.210;2023-06-26T06:38:55;3.30;;;2.87;;
529;SDS011;251;48.704;9.210;2023-06-26T06:41:22;3.07;;;2.70;;
529;SDS011;251;48.704;9.210;2023-06-26T06:43:48;2.73;;;2.43;;
529;SDS011;251;48.704;9.210;2023-06-26T06:46:15;3.13;;;2.63;;
529;SDS011;251;48.704;9.210;2023-06-26T06:48:43;4.00;;;2.00;;
529;SDS011;251;48.704;9.210;2023-06-26T06:51:11;3.23;;;2.60;;
529;SDS011;251;48.704;9.210;2023-06-26T06:53:38;3.43;;;2.70;;
529;SDS011;251;48.704;9.210;2023-06-26T06:56:05;2.37;;;2.03;;
529;SDS011;251;48.704;9.210;2023-06-26T06:58:32;2.63;;;2.23;;
529;SDS011;251;48.704;9.210;2023-06-26T07:01:01;3.17;;;2.30;;
529;SDS011;251;48.704;9.210;2023-06-26T07:03:29;4.10;;;2.57;;
529;SDS011;251;48.704;9.210;2023-06-26T07:05:57;2.87;;;2.57;;
529;SDS011;251;48.704;9.210;2023-06-26T07:08:24;4.60;;;2.80;;
529;SDS011;251;48.704;9.210;2023-06-26T07:10:50;3.90;;;2.60;;
529;SDS011;251;48.704;9.210;2023-06-26T07:13:17;3.47;;;2.47;;
529;SDS011;251;48.704;9.210;2023-06-26T07:15:45;3.33;;;2.67;;
529;SDS011;251;48.704;9.210;2023-06-26T07:18:12;3.20;;;2.00;;
529;SDS011;251;48.704;9.210;2023-06-26T07:20:39;2.97;;;2.40;;
529;SDS011;251;48.704;9.210;2023-06-26T07:23:08;3.60;;;2.90;;
529;SDS011;251;48.704;9.210;2023-06-26T07:25:35;3.47;;;2.70;;
529;SDS011;251;48.704;9.210;2023-06-26T07:28:02;3.53;;;2.60;;
529;SDS011;251;48.704;9.210;2023-06-26T07:30:29;3.10;;;2.10;;
529;SDS011;251;48.704;9.210;2023-06-26T07:32:56;3.37;;;2.67;;
529;SDS011;251;48.704;9.210;2023-06-26T07:35:22;2.43;;;2.13;;
529;SDS011;251;48.704;9.210;2023-06-26T07:37:50;3.30;;;2.20;;
529;SDS011;251;48.704;9.210;2023-06-26T07:40:18;3.43;;;2.10;;
529;SDS011;251;48.704;9.210;2023-06-26T07:42:45;2.77;;;2.40;;
529;SDS011;251;48.704;9.210;2023-06-26T07:45:12;3.43;;;2.50;;
529;SDS011;251;48.704;9.210;2023-06-26T07:47:39;3.83;;;2.07;;
529;SDS011;251;48.704;9.210;2023-06-26T07:50:06;4.07;;;2.90;;
529;SDS011;251;48.704;9.210;2023-06-26T07:52:33;3.27;;;2.43;;
529;SDS011;251;48.704;9.210;2023-06-26T07:55:00;3.33;;;2.00;;
529;SDS011;251;48.704;9.210;2023-06-26T07:57:30;2.63;;;2.40;;
529;SDS011;251;48.704;9.210;2023-06-26T07:59:57;3.00;;;2.20;;
529;SDS011;251;48.704;9.210;2023-06-26T08:02:24;2.83;;;2.40;;
529;SDS011;251;48.704;9.210;2023-06-26T08:04:50;3.47;;;2.57;;
529;SDS011;251;48.704;9.210;2023-06-26T08:07:17;2.27;;;1.77;;
529;SDS011;251;48.704;9.210;2023-06-26T08:09:44;2.73;;;2.07;;
529;SDS011;251;48.704;9.210;2023-06-26T08:12:11;4.73;;;3.70;;
529;SDS011;251;48.704;9.210;2023-06-26T08:14:39;2.40;;;2.10;;
529;SDS011;251;48.704;9.210;2023-06-26T08:17:06;3.10;;;2.10;;
529;SDS011;251;48.704;9.210;2023-06-26T08:19:32;4.30;;;2.30;;
529;SDS011;251;48.704;9.210;2023-06-26T08:21:59;2.73;;;2.10;;
529;SDS011;251;48.704;9.210;2023-06-26T08:24:26;2.60;;;2.20;;
529;SDS011;251;48.704;9.210;2023-06-26T08:26:53;2.53;;;2.00;;
529;SDS011;251;48.704;9.210;2023-06-26T08:29:19;1.93;;;1.73;;
529;SDS011;251;48.704;9.210;2023-06-26T08:31:47;2.43;;;1.97;;
529;SDS011;251;48.704;9.210;2023-06-26T08:34:14;3.13;;;2.20;;
529;SDS011;251;48.704;9.210;2023-06-26T08:36:41;4.30;;;2.20;;
529;SDS011;251;48.704;9.210;2023-06-26T08:39:09;2.27;;;1.90;;
529;SDS011;251;48.704;9.210;2023-06-26T08:41:36;3.40;;;1.90;;
529;SDS011;251;48.704;9.210;2023-06-26T08:44:03;2.30;;;2.10;;
529;SDS011;251;48.704;9.210;2023-06-26T08:46:31;3.27;;;2.23;;
529;SDS011;251;48.704;9.210;2023-06-26T08:49:05;3.33;;;2.20;;
529;SDS011;251;48.704;9.210;2023-06-26T08:51:41;2.10;;;1.73;;
529;SDS011;251;48.704;9.210;2023-06-26T08:54:13;2.43;;;2.07;;
529;SDS011;251;48.704;9.210;2023-06-26T08:56:46;10.83;;;2.27;;
529;SDS011;251;48.704;9.210;2023-06-26T08:59:15;3.57;;;2.47;;
529;SDS011;251;48.704;9.210;2023-06-26T09:01:44;1.90;;;1.57;;
529;SDS011;251;48.704;9.210;2023-06-26T09:04:15;2.67;;;1.83;;
529;SDS011;251;48.704;9.210;2023-06-26T09:06:45;2.37;;;1.87;;
529;SDS011;251;48.704;9.210;2023-06-26T09:09:17;3.50;;;2.87;;
529;SDS011;251;48.704;9.210;2023-06-26T09:11:44;2.43;;;2.23;;
529;SDS011;251;48.704;9.210;2023-06-26T09:14:11;3.97;;;2.30;;
529;SDS011;251;48.704;9.210;2023-06-26T09:16:39;4.07;;;2.80;;
529;SDS011;251;48.704;9.210;2023-06-26T09:19:08;3.83;;;1.90;;
529;SDS011;251;48.704;9.210;2023-06-26T09:21:40;3.27;;;2.20;;
529;SDS011;251;48.704;9.210;2023-06-26T09:24:10;2.57;;;2.33;;
529;SDS011;251;48.704;9.210;2023-06-26T09:26:40;2.93;;;2.07;;
529;SDS011;251;48.704;9.210;2023-06-26T09:29:16;2.47;;;2.20;;
529;SDS011;251;48.704;9.210;2023-06-26T09:31:46;3.27;;;2.50;;
529;SDS011;251;48.704;9.210;2023-06-26T09:34:13;3.27;;;2.40;;
529;SDS011;251;48.704;9.210;2023-06-26T09:36:41;2.40;;;1.93;;
529;SDS011;251;48.704;9.210;2023-06-26T09:39:13;3.83;;;2.57;;
529;SDS011;251;48.704;9.210;2023-06-26T09:41:41;3.50;;;2.63;;
529;SDS011;251;48.704;9.210;2023-06-26T09:44:10;2.97;;;2.23;;
529;SDS011;251;48.704;9.210;2023-06-26T09:46:39;2.73;;;2.10;;
529;SDS011;251;48.704;9.210;2023-06-26T09:49:08;2.87;;;2.57;;
529;SDS011;251;48.704;9.210;2023-06-26T09:51:48;2.50;;;2.30;;
529;SDS011;251;48.704;9.210;2023-06-26T09:54:16;2.40;;;2.20;;
529;SDS011;251;48.704;9.210;2023-06-26T09:56:43;2.30;;;2.10;;
529;SDS011;251;48.704;9.210;2023-06-26T09:59:10;3.63;;;2.30;;
529;SDS011;251;48.704;9.210;2023-06-26T10:01:39;2.80;;;1.80;;
529;SDS011;251;48.704;9.210;2023-06-26T10:04:07;3.27;;;2.97;;
529;SDS011;251;48.704;9.210;2023-06-26T10:06:35;2.83;;;2.33;;
529;SDS011;251;48.704;9.210;2023-06-26T10:09:04;3.83;;;2.40;;
529;SDS011;251;48.704;9.210;2023-06-26T10:11:32;2.40;;;1.87;;
529;SDS011;251;48.704;9.210;2023-06-26T10:14:03;3.93;;;2.60;;
529;SDS011;251;48.704;9.210;2023-06-26T10:16:33;3.73;;;2.70;;
529;SDS011;251;48.704;9.210;2023-06-26T10:19:05;2.70;;;2.50;;
529;SDS011;251;48.704;9.210;2023-06-26T10:21:34;2.80;;;2.40;;
529;SDS011;251;48.704;9.210;2023-06-26T10:24:05;3.33;;;3.03;;
529;SDS011;251;48.704;9.210;2023-06-26T10:26:34;3.47;;;2.67;;
529;SDS011;251;48.704;9.210;2023-06-26T10:29:04;3.20;;;2.90;;
529;SDS011;251;48.704;9.210;2023-06-26T10:31:32;2.37;;;2.17;;
529;SDS011;251;48.704;9.210;2023-06-26T10:34:01;2.77;;;2.47;;
529;SDS011;251;48.704;9.210;2023-06-26T10:36:29;2.67;;;2.30;;
529;SDS011;251;48.704;9.210;2023-06-26T10:38:59;2.20;;;2.00;;
529;SDS011;251;48.704;9.210;2023-06-26T10:41:35;2.40;;;2.17;;
529;SDS011;251;48.704;9.210;2023-06-26T10:44:05;3.77;;;2.60;;
529;SDS011;251;48.704;9.210;2023-06-26T10:46:33;2.57;;;1.87;;
529;SDS011;251;48.704;9.210;2023-06-26T10:49:14;3.30;;;2.50;;
529;SDS011;251;48.704;9.210;2023-06-26T10:51:45;2.70;;;2.50;;
529;SDS011;251;48.704;9.210;2023-06-26T10:54:14;4.10;;;2.57;;
529;SDS011;251;48.704;9.210;2023-06-26T10:56:43;4.10;;;2.30;;
529;SDS011;251;48.704;9.210;2023-06-26T10:59:13;3.23;;;2.70;;
529;SDS011;251;48.704;9.210;2023-06-26T11:01:42;3.50;;;3.07;;
529;SDS011;251;48.704;9.210;2023-06-26T11:04:09;2.53;;;1.90;;
529;SDS011;251;48.704;9.210;2023-06-26T11:06:37;2.63;;;2.30;;
529;SDS011;251;48.704;9.210;2023-06-26T11:09:08;3.10;;;2.80;;
529;SDS011;251;48.704;9.210;2023-06-26T11:14:27;3.07;;;2.83;;
529;SDS011;251;48.704;9.210;2023-06-26T11:16:55;2.57;;;2.17;;
529;SDS011;251;48.704;9.210;2023-06-26T11:19:22;3.40;;;2.80;;
529;SDS011;251;48.704;9.210;2023-06-26T11:21:57;2.70;;;2.20;;
529;SDS011;251;48.704;9.210;2023-06-26T11:24:25;4.43;;;2.77;;
529;SDS011;251;48.704;9.210;2023-06-26T11:26:52;2.90;;;2.47;;
529;SDS011;251;48.704;9.210;2023-06-26T11:29:21;2.77;;;2.43;;
529;SDS011;251;48.704;9.210;2023-06-26T11:31:48;5.60;;;2.33;;
529;SDS011;251;48.704;9.210;2023-06-26T11:34:26;3.40;;;3.10;;
529;SDS011;251;48.704;9.210;2023-06-26T11:36:57;4.30;;;2.53;;
529;SDS011;251;48.704;9.210;2023-06-26T11:39:26;2.60;;;2.40;;
529;SDS011;251;48.704;9.210;2023-06-26T11:41:53;3.40;;;2.57;;
529;SDS011;251;48.704;9.210;2023-06-26T11:44:21;2.87;;;2.57;;
529;SDS011;251;48.704;9.210;2023-06-26T11:46:50;4.73;;;2.50;;
529;SDS011;251;48.704;9.210;2023-06-26T11:49:20;3.63;;;2.30;;
529;SDS011;251;48.704;9.210;2023-06-26T11:51:51;3.67;;;2.73;;
529;SDS011;251;48.704;9.210;2023-06-26T11:54:28;3.70;;;3.23;;
529;SDS011;251;48.704;9.210;2023-06-26T11:56:56;3.53;;;2.87;;
529;SDS011;251;48.704;9.210;2023-06-26T11:59:31;3.13;;;2.13;;
529;SDS011;251;48.704;9.210;2023-06-26T12:01:59;3.80;;;2.93;;
529;SDS011;251;48.704;9.210;2023-06-26T12:04:28;4.17;;;3.77;;
529;SDS011;251;48.704;9.210;2023-06-26T12:06:55;9.23;;;4.00;;
529;SDS011;251;48.704;9.210;2023-06-26T12:09:23;2.93;;;2.70;;
529;SDS011;251;48.704;9.210;2023-06-26T12:11:51;3.87;;;2.53;;
529;SDS011;251;48.704;9.210;2023-06-26T12:14:19;4.00;;;2.60;;
529;SDS011;251;48.704;9.210;2023-06-26T12:16:49;2.93;;;2.63;;
529;SDS011;251;48.704;9.210;2023-06-26T12:19:16;4.13;;;3.07;;
529;SDS011;251;48.704;9.210;2023-06-26T12:21:44;3.00;;;2.70;;
529;SDS011;251;48.704;9.210;2023-06-26T12:24:13;3.80;;;3.03;;
529;SDS011;251;48.704;9.210;2023-06-26T12:26:41;2.67;;;2.40;;
529;SDS011;251;48.704;9.210;2023-06-26T12:29:10;3.90;;;3.00;;
529;SDS011;251;48.704;9.210;2023-06-26T12:31:39;3.90;;;2.50;;
529;SDS011;251;48.704;9.210;2023-06-26T12:34:10;3.10;;;2.57;;
529;SDS011;251;48.704;9.210;2023-06-26T12:36:39;4.07;;;3.10;;
529;SDS011;251;48.704;9.210;2023-06-26T12:39:08;2.70;;;2.50;;
529;SDS011;251;48.704;9.210;2023-06-26T12:41:43;3.47;;;2.60;;
529;SDS011;251;48.704;9.210;2023-06-26T12:44:16;2.60;;;2.40;;
529;SDS011;251;48.704;9.210;2023-06-26T12:46:45;2.73;;;2.33;;
529;SDS011;251;48.704;9.210;2023-06-26T12:49:14;2.90;;;2.60;;
529;SDS011;251;48.704;9.210;2023-06-26T12:51:42;3.20;;;2.17;;
529;SDS011;251;48.704;9.210;2023-06-26T12:54:09;3.10;;;2.67;;
529;SDS011;251;48.704;9.210;2023-06-26T12:56:36;2.43;;;2.10;;
529;SDS011;251;48.704;9.210;2023-06-26T12:59:02;2.50;;;2.30;;
529;SDS011;251;48.704;9.210;2023-06-26T13:01:29;3.40;;;3.10;;
529;SDS011;251;48.704;9.210;2023-06-26T13:03:56;3.10;;;2.80;;
529;SDS011;251;48.704;9.210;2023-06-26T13:06:25;3.50;;;2.90;;
529;SDS011;251;48.704;9.210;2023-06-26T13:08:52;2.13;;;1.93;;
529;SDS011;251;48.704;9.210;2023-06-26T13:11:19;3.50;;;3.07;;
529;SDS011;251;48.704;9.210;2023-06-26T13:13:46;2.43;;;2.23;;
529;SDS011;251;48.704;9.210;2023-06-26T13:16:13;2.27;;;2.07;;
529;SDS011;251;48.704;9.210;2023-06-26T13:18:41;4.40;;;2.43;;
529;SDS011;251;48.704;9.210;2023-06-26T13:21:07;3.70;;;3.10;;
529;SDS011;251;48.704;9.210;2023-06-26T13:23:36;2.60;;;2.30;;
529;SDS011;251;48.704;9.210;2023-06-26T13:26:02;2.73;;;2.50;;
529;SDS011;251;48.704;9.210;2023-06-26T13:28:31;2.83;;;2.40;;
529;SDS011;251;48.704;9.210;2023-06-26T13:30:57;4.00;;;2.87;;
529;SDS011;251;48.704;9.210;2023-06-26T13:33:24;2.87;;;2.27;;
529;SDS011;251;48.704;9.210;2023-06-26T13:35:51;2.57;;;2.23;;
529;SDS011;251;48.704;9.210;2023-06-26T13:38:18;2.80;;;2.60;;
529;SDS011;251;48.704;9.210;2023-06-26T13:40:50;4.30;;;3.10;;
529;SDS011;251;48.704;9.210;2023-06-26T13:43:18;2.87;;;2.60;;
529;SDS011;251;48.704;9.210;2023-06-26T13:45:46;2.90;;;2.40;;
529;SDS011;251;48.704;9.210;2023-06-26T13:48:13;2.30;;;2.10;;
529;SDS011;251;48.704;9.210;2023-06-26T13:50:40;2.23;;;1.80;;
529;SDS011;251;48.704;9.210;2023-06-26T13:53:06;2.60;;;2.10;;
529;SDS011;251;48.704;9.210;2023-06-26T13:55:34;2.60;;;2.13;;
529;SDS011;251;48.704;9.210;2023-06-26T13:58:04;3.00;;;2.47;;
529;SDS011;251;48.704;9.210;2023-06-26T14:00:31;2.10;;;1.80;;
529;SDS011;251;48.704;9.210;2023-06-26T14:02:58;2.00;;;1.80;;
529;SDS011;251;48.704;9.210;2023-06-26T14:05:25;2.50;;;1.77;;
529;SDS011;251;48.704;9.210;2023-06-26T14:07:52;2.90;;;2.30;;
529;SDS011;251;48.704;9.210;2023-06-26T14:10:19;2.30;;;1.60;;
529;SDS011;251;48.704;9.210;2023-06-26T14:12:46;2.97;;;2.47;;
529;SDS011;251;48.704;9.210;2023-06-26T14:15:15;3.00;;;1.40;;
529;SDS011;251;48.704;9.210;2023-06-26T14:17:42;2.83;;;2.60;;
529;SDS011;251;48.704;9.210;2023-06-26T14:20:09;4.03;;;2.23;;
529;SDS011;251;48.704;9.210;2023-06-26T14:22:38;2.60;;;2.30;;
529;SDS011;251;48.704;9.210;2023-06-26T14:25:05;3.03;;;2.07;;
529;SDS011;251;48.704;9.210;2023-06-26T14:27:32;3.50;;;2.20;;
529;SDS011;251;48.704;9.210;2023-06-26T14:29:59;2.17;;;1.70;;
529;SDS011;251;48.704;9.210;2023-06-26T14:32:27;2.80;;;2.20;;
529;SDS011;251;48.704;9.210;2023-06-26T14:34:54;2.13;;;1.20;;
529;SDS011;251;48.704;9.210;2023-06-26T14:37:21;1.90;;;1.63;;
529;SDS011;251;48.704;9.210;2023-06-26T14:39:47;3.63;;;1.83;;
529;SDS011;251;48.704;9.210;2023-06-26T14:42:14;1.70;;;1.40;;
529;SDS011;251;48.704;9.210;2023-06-26T14:44:41;2.47;;;2.07;;
529;SDS011;251;48.704;9.210;2023-06-26T14:47:08;1.80;;;1.43;;
529;SDS011;251;48.704;9.210;2023-06-26T14:49:36;2.70;;;1.90;;
529;SDS011;251;48.704;9.210;2023-06-26T14:52:02;2.50;;;1.40;;
529;SDS011;251;48.704;9.210;2023-06-26T14:54:30;2.20;;;2.00;;
529;SDS011;251;48.704;9.210;2023-06-26T14:56:57;2.80;;;1.90;;
529;SDS011;251;48.704;9.210;2023-06-26T14:59:25;2.80;;;2.33;;
529;SDS011;251;48.704;9.210;2023-06-26T15:01:52;1.40;;;1.10;;
529;SDS011;251;48.704;9.210;2023-06-26T15:04:19;1.87;;;1.27;;
529;SDS011;251;48.704;9.210;2023-06-26T15:06:47;1.90;;;1.40;;
529;SDS011;251;48.704;9.210;2023-06-26T15:09:13;1.37;;;1.17;;
529;SDS011;251;48.704;9.210;2023-06-26T15:11:40;1.60;;;1.33;;
529;SDS011;251;48.704;9.210;2023-06-26T15:14:08;2.37;;;1.67;;
529;SDS011;251;48.704;9.210;2023-06-26T15:16:34;1.87;;;1.33;;
529;SDS011;251;48.704;9.210;2023-06-26T15:19:01;1.60;;;1.13;;
529;SDS011;251;48.704;9.210;2023-06-26T15:21:29;2.53;;;1.47;;
529;SDS011;251;48.704;9.210;2023-06-26T15:23:57;4.23;;;1.10;;
529;SDS011;251;48.704;9.210;2023-06-26T15:26:23;1.87;;;1.37;;
529;SDS011;251;48.704;9.210;2023-06-26T15:28:50;2.93;;;1.90;;
529;SDS011;251;48.704;9.210;2023-06-26T15:31:19;1.90;;;1.67;;
529;SDS011;251;48.704;9.210;2023-06-26T15:33:46;4.93;;;1.70;;
529;SDS011;251;48.704;9.210;2023-06-26T15:36:13;2.30;;;1.77;;
529;SDS011;251;48.704;9.210;2023-06-26T15:38:40;1.63;;;1.53;;
529;SDS011;251;48.704;9.210;2023-06-26T15:41:09;1.70;;;1.47;;
529;SDS011;251;48.704;9.210;2023-06-26T15:43:36;2.40;;;2.03;;
529;SDS011;251;48.704;9.210;2023-06-26T15:46:04;2.20;;;1.80;;
529;SDS011;251;48.704;9.210;2023-06-26T15:48:31;2.50;;;1.63;;
529;SDS011;251;48.704;9.210;2023-06-26T15:50:58;2.20;;;1.60;;
529;SDS011;251;48.704;9.210;2023-06-26T15:53:33;2.20;;;1.70;;
529;SDS011;251;48.704;9.210;2023-06-26T15:56:02;2.03;;;1.47;;